Time;durP1;ratioP1;P1;durP2;ratioP2;P2;SDS_P1;SDS_P2;PMS_P1;PMS_P2;Temp;Humidity;BMP_temperature;BMP_pressure;BME280_temperature;BME280_humidity;BME280_pressure;Samples;Min_cycle;Max_cycle;Signal;HPM_P1;HPM_P2
2021/03/16 00:02:02;;;;;;;5.40;1.73;;;;;;;;;;5035828;28;20041;-75
2021/03/16 00:04:28;;;;;;;5.70;1.85;;;;;;;;;;5019309;28;20060;-75
2021/03/16 00:06:53;;;;;;;4.78;1.95;;;;;;;;;;5035811;28;20033;-75
2021/03/16 00:09:19;;;;;;;4.03;1.45;;;;;;;;;;5035689;28;20037;-76
2021/03/16 00:11:44;;;;;;;4.70;1.52;;;;;;;;;;5052297;28;20041;-75
2021/03/16 00:14:10;;;;;;;5.03;1.23;;;;;;;;;;5035385;28;20045;-75
2021/03/16 00:16:35;;;;;;;5.35;2.03;;;;;;;;;;5034955;28;20413;-76
2021/03/16 00:19:00;;;;;;;5.15;1.80;;;;;;;;;;5035450;28;20072;-75
2021/03/16 00:21:26;;;;;;;5.72;1.75;;;;;;;;;;5035237;28;20409;-75
2021/03/16 00:23:51;;;;;;;3.58;1.80;;;;;;;;;;5015183;28;20056;-76
2021/03/16 00:26:17;;;;;;;5.30;1.42;;;;;;;;;;5036281;28;20055;-75
2021/03/16 00:28:42;;;;;;;5.43;1.40;;;;;;;;;;5035184;28;20399;-76
2021/03/16 00:31:08;;;;;;;5.05;1.83;;;;;;;;;;5018769;28;20403;-76
2021/03/16 00:33:33;;;;;;;3.33;1.52;;;;;;;;;;5051858;28;20419;-76
2021/03/16 00:35:59;;;;;;;3.60;1.55;;;;;;;;;;5035585;28;20376;-75
2021/03/16 00:38:24;;;;;;;4.30;1.83;;;;;;;;;;5018286;28;20041;-75
2021/03/16 00:40:50;;;;;;;4.13;1.40;;;;;;;;;;5034437;28;20449;-76
2021/03/16 00:43:19;;;;;;;4.15;1.33;;;;;;;;;;5051684;28;20048;-75
2021/03/16 00:45:44;;;;;;;4.88;1.85;;;;;;;;;;5031135;28;20052;-75
2021/03/16 00:48:17;;;;;;;3.45;1.48;;;;;;;;;;5015261;28;20033;-75
2021/03/16 00:50:42;;;;;;;;;;;;;;;;;;5015790;28;20414;-76
2021/03/16 00:53:07;;;;;;;5.28;1.80;;;;;;;;;;5029223;28;19913;-75
2021/03/16 00:55:33;;;;;;;4.10;1.50;;;;;;;;;;5050803;28;20082;-75
2021/03/16 00:57:58;;;;;;;5.25;1.77;;;;;;;;;;5051482;28;20068;-75
2021/03/16 01:00:24;;;;;;;4.07;1.30;;;;;;;;;;5034513;28;20414;-75
2021/03/16 01:02:49;;;;;;;4.80;1.77;;;;;;;;;;5034807;28;20399;-75
2021/03/16 01:05:15;;;;;;;3.83;1.35;;;;;;;;;;5034488;28;20498;-75
2021/03/16 01:07:40;;;;;;;4.60;1.17;;;;;;;;;;5002014;28;20067;-75
2021/03/16 01:10:14;;;;;;;4.80;1.25;;;;;;;;;;5017848;28;20033;-75
2021/03/16 01:12:40;;;;;;;5.55;1.67;;;;;;;;;;5034613;28;20045;-75
2021/03/16 01:15:06;;;;;;;4.97;1.23;;;;;;;;;;5034576;28;20033;-75
2021/03/16 01:17:32;;;;;;;5.13;1.23;;;;;;;;;;5051059;28;20573;-75
2021/03/16 01:19:57;;;;;;;4.63;1.17;;;;;;;;;;5050530;28;20037;-75
2021/03/16 01:22:23;;;;;;;4.00;1.15;;;;;;;;;;5034026;28;20120;-76
2021/03/16 01:24:48;;;;;;;4.82;1.40;;;;;;;;;;5017813;28;20399;-75
2021/03/16 01:27:14;;;;;;;4.78;1.75;;;;;;;;;;5017682;28;20045;-75
2021/03/16 01:29:39;;;;;;;5.45;1.73;;;;;;;;;;5034045;28;20415;-75
2021/03/16 01:32:05;;;;;;;5.05;1.27;;;;;;;;;;5050809;28;20407;-75
2021/03/16 01:34:30;;;;;;;4.10;1.02;;;;;;;;;;5034217;28;20472;-76
2021/03/16 01:36:56;;;;;;;4.80;1.55;;;;;;;;;;5017362;28;20048;-75
2021/03/16 01:39:21;;;;;;;4.53;1.25;;;;;;;;;;5017314;28;20419;-75
2021/03/16 01:41:47;;;;;;;4.97;1.52;;;;;;;;;;5050369;28;20403;-75
2021/03/16 01:44:12;;;;;;;5.68;1.48;;;;;;;;;;5033976;28;20037;-75
2021/03/16 01:46:38;;;;;;;3.63;1.63;;;;;;;;;;5033784;28;20044;-76
2021/03/16 01:49:03;;;;;;;3.55;1.40;;;;;;;;;;5017033;28;20041;-75
2021/03/16 01:51:29;;;;;;;5.13;1.52;;;;;;;;;;5033656;28;20069;-75
2021/03/16 01:53:54;;;;;;;4.00;1.05;;;;;;;;;;5033631;28;20029;-75
2021/03/16 01:56:20;;;;;;;5.40;1.48;;;;;;;;;;5033764;28;20451;-75
2021/03/16 01:58:45;;;;;;;4.05;1.00;;;;;;;;;;5017514;28;20033;-76
2021/03/16 02:01:11;;;;;;;6.07;1.42;;;;;;;;;;5017250;28;20442;-75
2021/03/16 02:03:37;;;;;;;3.88;1.20;;;;;;;;;;5033634;28;20531;-75
2021/03/16 02:06:02;;;;;;;3.13;0.95;;;;;;;;;;5033388;28;20419;-75
2021/03/16 02:08:48;;;;;;;3.25;1.30;;;;;;;;;;5016761;28;20041;-76
2021/03/16 02:11:33;;;;;;;3.05;1.25;;;;;;;;;;5050006;28;20060;-75
2021/03/16 02:14:05;;;;;;;4.45;1.40;;;;;;;;;;5033754;28;20079;-75
2021/03/16 02:16:40;;;;;;;4.28;1.10;;;;;;;;;;5037475;28;20496;-75
2021/03/16 02:19:13;;;;;;;4.45;1.00;;;;;;;;;;5030650;28;20057;-75
2021/03/16 02:21:38;;;;;;;5.85;1.85;;;;;;;;;;5013781;28;20037;-75
2021/03/16 02:24:08;;;;;;;4.00;1.20;;;;;;;;;;5013995;28;20029;-75
2021/03/16 02:27:12;;;;;;;4.68;1.75;;;;;;;;;;5030489;28;20069;-75
2021/03/16 02:29:42;;;;;;;3.72;1.15;;;;;;;;;;5009173;28;20046;-75
2021/03/16 02:32:15;;;;;;;3.38;1.42;;;;;;;;;;5026547;28;20053;-75
2021/03/16 02:34:41;;;;;;;4.15;1.42;;;;;;;;;;5047105;28;20033;-75
2021/03/16 02:37:07;;;;;;;5.97;1.42;;;;;;;;;;4997533;28;20084;-75
2021/03/16 02:39:32;;;;;;;6.30;1.90;;;;;;;;;;5046909;28;20050;-76
2021/03/16 02:41:58;;;;;;;3.80;1.13;;;;;;;;;;5029642;28;20077;-75
2021/03/16 02:44:23;;;;;;;4.97;1.17;;;;;;;;;;5029600;28;20120;-76
2021/03/16 02:46:49;;;;;;;3.65;1.17;;;;;;;;;;5023074;28;20458;-75
2021/03/16 02:49:15;;;;;;;4.53;1.17;;;;;;;;;;5013982;28;20417;-75
2021/03/16 02:51:40;;;;;;;3.38;0.90;;;;;;;;;;4986445;28;20390;-76
2021/03/16 02:54:06;;;;;;;3.90;1.15;;;;;;;;;;5016573;28;20119;-75
2021/03/16 02:56:32;;;;;;;6.53;1.92;;;;;;;;;;5033500;28;20068;-75
2021/03/16 02:58:58;;;;;;;5.10;1.50;;;;;;;;;;5016957;28;20483;-75
2021/03/16 03:01:23;;;;;;;3.33;0.82;;;;;;;;;;5000626;28;20120;-75
2021/03/16 03:03:49;;;;;;;5.18;1.30;;;;;;;;;;5016607;28;20403;-75
2021/03/16 03:06:15;;;;;;;5.13;1.65;;;;;;;;;;5033103;28;20399;-75
2021/03/16 03:08:42;;;;;;;3.70;1.00;;;;;;;;;;5032966;28;20094;-75
2021/03/16 03:11:10;;;;;;;4.28;1.52;;;;;;;;;;5016749;28;20120;-76
2021/03/16 03:13:35;;;;;;;4.45;0.90;;;;;;;;;;5049004;28;20091;-75
2021/03/16 03:16:01;;;;;;;5.53;1.40;;;;;;;;;;5033091;28;20029;-75
2021/03/16 03:18:26;;;;;;;4.82;1.20;;;;;;;;;;5049788;28;20037;-75
2021/03/16 03:20:52;;;;;;;4.57;1.20;;;;;;;;;;5020346;28;20457;-75
2021/03/16 03:23:25;;;;;;;5.00;1.23;;;;;;;;;;5036211;28;20400;-75
2021/03/16 03:25:55;;;;;;;4.18;1.52;;;;;;;;;;5053519;28;20045;-75
2021/03/16 03:28:21;;;;;;;4.05;1.13;;;;;;;;;;5052913;28;20479;-75
2021/03/16 03:30:47;;;;;;;3.95;0.90;;;;;;;;;;5036620;28;20083;-75
2021/03/16 03:33:12;;;;;;;4.90;1.15;;;;;;;;;;5036529;28;20048;-75
2021/03/16 03:35:38;;;;;;;2.92;1.38;;;;;;;;;;5053029;28;20032;-76
2021/03/16 03:38:03;;;;;;;4.55;1.00;;;;;;;;;;5036344;28;20495;-75
2021/03/16 03:40:29;;;;;;;3.85;0.85;;;;;;;;;;5032054;28;20044;-75
2021/03/16 03:42:55;;;;;;;3.63;1.00;;;;;;;;;;5050956;28;20045;-75
2021/03/16 03:45:20;;;;;;;3.53;1.20;;;;;;;;;;5019810;28;20029;-75
2021/03/16 03:47:46;;;;;;;4.95;1.20;;;;;;;;;;5052082;28;20412;-75
2021/03/16 03:50:13;;;;;;;6.10;1.55;;;;;;;;;;5036054;28;20032;-75
2021/03/16 03:52:38;;;;;;;4.90;1.10;;;;;;;;;;5035662;28;20043;-76
2021/03/16 03:55:05;;;;;;;8.40;1.58;;;;;;;;;;5036070;28;20033;-75
2021/03/16 03:57:30;;;;;;;4.80;1.17;;;;;;;;;;5036029;28;20059;-75
2021/03/16 03:59:56;;;;;;;4.05;1.13;;;;;;;;;;5019574;28;20029;-75
2021/03/16 04:02:21;;;;;;;5.15;1.20;;;;;;;;;;5035424;28;20049;-75
2021/03/16 04:04:47;;;;;;;5.22;1.30;;;;;;;;;;5052264;28;20418;-75
2021/03/16 04:07:12;;;;;;;5.90;1.52;;;;;;;;;;5035722;28;20041;-75
2021/03/16 04:09:37;;;;;;;4.22;1.00;;;;;;;;;;5035164;28;20045;-75
2021/03/16 04:12:04;;;;;;;5.32;1.15;;;;;;;;;;5035390;28;20110;-75
2021/03/16 04:14:29;;;;;;;6.35;1.67;;;;;;;;;;5015779;28;20049;-75
2021/03/16 04:16:55;;;;;;;5.07;1.10;;;;;;;;;;5032272;28;20773;-75
2021/03/16 04:19:21;;;;;;;3.75;1.00;;;;;;;;;;5032297;28;20111;-76
2021/03/16 04:21:46;;;;;;;4.03;1.05;;;;;;;;;;5031613;28;20164;-75
2021/03/16 04:24:12;;;;;;;3.72;1.17;;;;;;;;;;5048508;28;20037;-76
2021/03/16 04:26:37;;;;;;;4.80;1.13;;;;;;;;;;5031932;28;20044;-75
2021/03/16 04:29:03;;;;;;;5.22;1.38;;;;;;;;;;5031797;28;20060;-75
2021/03/16 04:31:28;;;;;;;3.25;1.02;;;;;;;;;;5031592;28;20462;-75
2021/03/16 04:33:54;;;;;;;5.97;1.30;;;;;;;;;;5031884;28;20048;-75
2021/03/16 04:36:19;;;;;;;5.13;1.60;;;;;;;;;;5031293;28;20407;-75
2021/03/16 04:38:44;;;;;;;4.63;1.48;;;;;;;;;;5031692;28;20400;-75
2021/03/16 04:41:10;;;;;;;4.75;1.83;;;;;;;;;;5031474;28;20041;-75
2021/03/16 04:43:40;;;;;;;5.05;1.40;;;;;;;;;;5021817;28;20407;-75
2021/03/16 04:46:06;;;;;;;4.68;1.15;;;;;;;;;;5049451;28;20071;-75
2021/03/16 04:48:31;;;;;;;4.82;1.10;;;;;;;;;;5018571;28;20050;-75
2021/03/16 04:50:57;;;;;;;5.60;1.00;;;;;;;;;;5051065;28;20060;-75
2021/03/16 04:53:22;;;;;;;4.90;1.25;;;;;;;;;;5034712;28;20410;-75
2021/03/16 04:55:48;;;;;;;5.63;1.30;;;;;;;;;;5034778;28;20392;-75
2021/03/16 04:58:13;;;;;;;5.25;1.20;;;;;;;;;;5034585;28;20403;-75
2021/03/16 05:00:38;;;;;;;6.25;1.45;;;;;;;;;;5050751;28;20411;-75
2021/03/16 05:03:04;;;;;;;5.70;1.48;;;;;;;;;;5018158;28;20041;-75
2021/03/16 05:05:29;;;;;;;4.05;1.20;;;;;;;;;;5017651;28;20415;-75
2021/03/16 05:07:55;;;;;;;5.95;1.25;;;;;;;;;;5034554;28;20589;-75
2021/03/16 05:10:20;;;;;;;7.22;1.75;;;;;;;;;;5050975;28;20055;-76
2021/03/16 05:12:46;;;;;;;8.30;1.95;;;;;;;;;;5018260;28;20376;-75
2021/03/16 05:15:11;;;;;;;5.35;1.30;;;;;;;;;;5050854;28;20040;-75
2021/03/16 05:17:37;;;;;;;4.78;1.20;;;;;;;;;;5034745;28;20772;-76
2021/03/16 05:20:03;;;;;;;7.22;1.42;;;;;;;;;;5017997;28;20414;-75
2021/03/16 05:22:28;;;;;;;4.45;1.35;;;;;;;;;;5001247;28;20406;-75
2021/03/16 05:24:53;;;;;;;4.38;1.10;;;;;;;;;;5034037;28;20076;-76
2021/03/16 05:27:19;;;;;;;4.18;1.52;;;;;;;;;;5034318;28;20036;-75
2021/03/16 05:29:44;;;;;;;3.85;1.25;;;;;;;;;;5033840;28;20453;-75
2021/03/16 05:32:10;;;;;;;5.47;1.33;;;;;;;;;;5050653;28;20399;-75
2021/03/16 05:34:35;;;;;;;5.18;1.33;;;;;;;;;;5050693;28;20064;-76
2021/03/16 05:37:01;;;;;;;5.50;1.48;;;;;;;;;;5017568;28;20453;-75
2021/03/16 05:39:27;;;;;;;6.13;1.33;;;;;;;;;;5033673;28;20419;-75
2021/03/16 05:41:53;;;;;;;6.15;1.52;;;;;;;;;;5013347;28;20151;-76
2021/03/16 05:44:18;;;;;;;4.07;1.35;;;;;;;;;;5023479;28;20037;-75
2021/03/16 05:46:44;;;;;;;3.88;1.45;;;;;;;;;;5030458;28;20034;-75
2021/03/16 05:49:09;;;;;;;3.95;1.10;;;;;;;;;;5030693;28;20041;-76
2021/03/16 05:51:35;;;;;;;3.95;0.98;;;;;;;;;;5013734;28;20384;-75
2021/03/16 05:54:00;;;;;;;4.18;1.27;;;;;;;;;;5030295;28;20486;-75
2021/03/16 05:56:26;;;;;;;3.42;1.10;;;;;;;;;;5014137;28;20037;-75
2021/03/16 05:58:52;;;;;;;3.85;1.05;;;;;;;;;;5030125;28;20421;-75
2021/03/16 06:01:17;;;;;;;5.05;1.40;;;;;;;;;;5014156;28;20049;-75
2021/03/16 06:03:46;;;;;;;3.92;0.93;;;;;;;;;;5013887;28;20415;-76
2021/03/16 06:06:11;;;;;;;6.57;1.55;;;;;;;;;;5012986;28;20574;-75
2021/03/16 06:08:37;;;;;;;7.18;1.88;;;;;;;;;;5027633;28;20057;-75
2021/03/16 06:11:06;;;;;;;8.20;1.38;;;;;;;;;;5044441;28;20420;-75
2021/03/16 06:13:32;;;;;;;10.43;1.80;;;;;;;;;;5032907;28;20117;-76
2021/03/16 06:15:59;;;;;;;12.75;1.60;;;;;;;;;;5029628;28;20116;-76
2021/03/16 06:18:27;;;;;;;11.13;1.80;;;;;;;;;;5030286;28;20090;-76
2021/03/16 06:21:00;;;;;;;5.25;1.75;;;;;;;;;;4997658;28;20049;-75
2021/03/16 06:23:32;;;;;;;5.05;1.40;;;;;;;;;;5046548;28;20079;-76
2021/03/16 06:25:58;;;;;;;5.65;1.25;;;;;;;;;;5014134;28;20049;-75
2021/03/16 06:28:32;;;;;;;6.72;1.25;;;;;;;;;;4996979;28;20160;-75
2021/03/16 06:30:58;;;;;;;5.53;1.13;;;;;;;;;;5014200;28;20041;-75
2021/03/16 06:33:25;;;;;;;7.00;1.17;;;;;;;;;;5030377;28;20037;-76
2021/03/16 06:35:58;;;;;;;7.00;1.70;;;;;;;;;;5013674;28;20037;-75
2021/03/16 06:38:24;;;;;;;9.48;1.52;;;;;;;;;;5014261;28;20033;-75
2021/03/16 06:40:49;;;;;;;4.57;1.58;;;;;;;;;;5021377;28;20041;-75
2021/03/16 06:43:14;;;;;;;11.23;1.83;;;;;;;;;;5031988;28;20586;-75
2021/03/16 06:45:40;;;;;;;7.47;1.48;;;;;;;;;;5032209;28;20041;-75
2021/03/16 06:48:22;;;;;;;7.75;1.40;;;;;;;;;;5016150;28;20102;-76
2021/03/16 06:50:48;;;;;;;7.07;1.63;;;;;;;;;;5031613;28;20079;-75
2021/03/16 06:53:20;;;;;;;7.50;2.10;;;;;;;;;;5018328;28;20793;-75
2021/03/16 06:55:58;;;;;;;6.32;1.20;;;;;;;;;;5053451;28;20041;-75
2021/03/16 06:58:31;;;;;;;9.95;2.00;;;;;;;;;;5021084;28;20126;-75
2021/03/16 07:01:13;;;;;;;8.95;1.85;;;;;;;;;;5036948;28;20111;-75
2021/03/16 07:03:39;;;;;;;6.35;1.67;;;;;;;;;;5037283;28;20037;-74
2021/03/16 07:06:15;;;;;;;5.47;1.60;;;;;;;;;;5053521;28;20126;-75
2021/03/16 07:08:41;;;;;;;10.30;1.40;;;;;;;;;;5052776;28;20515;-75
2021/03/16 07:11:09;;;;;;;7.55;1.42;;;;;;;;;;5015644;28;20026;-75
2021/03/16 07:13:34;;;;;;;10.10;1.80;;;;;;;;;;5035436;28;20040;-75
2021/03/16 07:16:03;;;;;;;12.32;2.78;;;;;;;;;;5037102;28;20458;-75
2021/03/16 07:18:32;;;;;;;10.85;2.55;;;;;;;;;;5019996;28;20064;-75
2021/03/16 07:20:58;;;;;;;10.10;1.90;;;;;;;;;;5036651;28;20044;-75
2021/03/16 07:23:27;;;;;;;15.27;2.65;;;;;;;;;;5036511;28;20033;-74
2021/03/16 07:25:53;;;;;;;12.90;3.55;;;;;;;;;;5036668;28;20060;-75
2021/03/16 07:28:19;;;;;;;41.58;3.97;;;;;;;;;;5019827;28;20538;-74
2021/03/16 07:30:44;;;;;;;17.33;4.32;;;;;;;;;;5034469;28;20095;-74
2021/03/16 07:33:12;;;;;;;17.58;2.65;;;;;;;;;;5031918;28;20041;-75
2021/03/16 07:35:38;;;;;;;15.95;2.15;;;;;;;;;;5027243;28;20463;-74
2021/03/16 07:38:03;;;;;;;10.63;2.35;;;;;;;;;;5016367;28;20069;-75
2021/03/16 07:40:28;;;;;;;8.82;2.28;;;;;;;;;;5044838;28;20759;-75
2021/03/16 07:42:54;;;;;;;12.27;2.33;;;;;;;;;;5054182;28;20110;-75
2021/03/16 07:45:24;;;;;;;11.45;2.50;;;;;;;;;;5033971;28;20036;-74
2021/03/16 07:47:49;;;;;;;12.23;1.90;;;;;;;;;;5052836;28;20037;-74
2021/03/16 07:50:15;;;;;;;11.63;1.95;;;;;;;;;;5052099;28;20039;-75
2021/03/16 07:52:45;;;;;;;13.43;2.20;;;;;;;;;;5032047;28;20451;-74
2021/03/16 07:55:12;;;;;;;11.30;2.15;;;;;;;;;;5016021;28;20566;-75
2021/03/16 07:57:37;;;;;;;13.18;2.38;;;;;;;;;;5016320;28;20496;-74
2021/03/16 08:00:05;;;;;;;8.70;1.75;;;;;;;;;;5022362;28;20036;-74
2021/03/16 08:02:32;;;;;;;8.88;1.70;;;;;;;;;;5036088;28;20037;-75
2021/03/16 08:04:57;;;;;;;9.90;2.30;;;;;;;;;;5018401;28;20376;-74
2021/03/16 08:07:23;;;;;;;11.77;1.63;;;;;;;;;;5035295;28;20060;-74
2021/03/16 08:09:55;;;;;;;8.35;1.65;;;;;;;;;;5052074;28;20045;-74
2021/03/16 08:12:23;;;;;;;7.68;2.20;;;;;;;;;;5036007;28;20033;-74
2021/03/16 08:14:48;;;;;;;9.23;1.83;;;;;;;;;;5032325;28;20053;-74
2021/03/16 08:17:28;;;;;;;14.63;2.58;;;;;;;;;;5032572;28;20029;-74
2021/03/16 08:19:53;;;;;;;8.07;1.80;;;;;;;;;;4999794;28;20033;-74
2021/03/16 08:22:20;;;;;;;9.88;1.98;;;;;;;;;;4999713;28;20121;-74
2021/03/16 08:24:45;;;;;;;11.30;2.10;;;;;;;;;;5053041;28;20402;-74
2021/03/16 08:27:12;;;;;;;11.73;2.13;;;;;;;;;;5035016;28;20029;-74
2021/03/16 08:29:44;;;;;;;12.07;2.30;;;;;;;;;;5050537;28;20068;-74
2021/03/16 08:32:14;;;;;;;7.30;1.92;;;;;;;;;;5052111;28;20033;-74
2021/03/16 08:34:40;;;;;;;7.30;1.92;;;;;;;;;;5019124;28;20491;-75
2021/03/16 08:37:05;;;;;;;9.25;2.60;;;;;;;;;;5035470;28;20058;-75
2021/03/16 08:39:31;;;;;;;10.35;2.67;;;;;;;;;;5034820;28;20040;-75
2021/03/16 08:42:00;;;;;;;12.10;3.60;;;;;;;;;;5068699;28;20379;-74
2021/03/16 08:44:30;;;;;;;8.20;3.10;;;;;;;;;;5055568;28;20047;-74
2021/03/16 08:46:56;;;;;;;12.98;3.33;;;;;;;;;;5018386;28;20041;-74
2021/03/16 08:49:25;;;;;;;11.43;3.05;;;;;;;;;;5035224;28;20044;-74
2021/03/16 08:51:51;;;;;;;11.18;2.85;;;;;;;;;;5050828;28;20063;-74
2021/03/16 08:54:29;;;;;;;8.55;2.80;;;;;;;;;;5018203;28;20041;-75
2021/03/16 08:56:54;;;;;;;6.88;2.50;;;;;;;;;;5035250;28;20052;-75
2021/03/16 08:59:21;;;;;;;7.82;2.83;;;;;;;;;;5051134;28;20045;-76
2021/03/16 09:01:48;;;;;;;10.13;2.55;;;;;;;;;;5034789;28;20060;-76
2021/03/16 09:04:13;;;;;;;11.38;2.97;;;;;;;;;;5018291;28;20420;-76
2021/03/16 09:06:39;;;;;;;12.35;2.70;;;;;;;;;;5034318;28;20037;-78
2021/03/16 09:09:05;;;;;;;10.93;2.90;;;;;;;;;;5018196;28;20043;-79
2021/03/16 09:11:32;;;;;;;20.27;3.65;;;;;;;;;;5018192;28;20029;-79
2021/03/16 09:14:55;;;;;;;23.85;5.22;;;;;;;;;;5014223;28;20095;-79
2021/03/16 09:17:43;;;;;;;13.93;3.42;;;;;;;;;;5047741;28;20502;-79
2021/03/16 09:20:20;;;;;;;10.50;2.45;;;;;;;;;;5017886;28;20045;-80
2021/03/16 09:22:52;;;;;;;9.60;2.63;;;;;;;;;;5014801;28;20513;-79
2021/03/16 09:25:17;;;;;;;12.95;3.15;;;;;;;;;;5019229;28;20116;-77
2021/03/16 09:27:43;;;;;;;11.25;2.70;;;;;;;;;;5014873;28;20116;-77
2021/03/16 09:30:10;;;;;;;15.68;2.63;;;;;;;;;;4995906;28;20037;-78
2021/03/16 09:32:36;;;;;;;9.55;2.80;;;;;;;;;;5024342;28;20041;-76
2021/03/16 09:35:02;;;;;;;16.65;3.35;;;;;;;;;;5017408;28;20044;-77
2021/03/16 09:37:27;;;;;;;19.80;4.57;;;;;;;;;;5012516;28;20029;-78
2021/03/16 09:39:59;;;;;;;13.55;3.33;;;;;;;;;;5021677;28;20065;-77
2021/03/16 09:42:37;;;;;;;16.90;4.32;;;;;;;;;;5054504;28;20111;-77
2021/03/16 09:45:04;;;;;;;13.88;3.58;;;;;;;;;;5054228;28;20044;-78
2021/03/16 09:47:31;;;;;;;20.08;4.07;;;;;;;;;;5040857;28;20049;-77
2021/03/16 09:50:30;;;;;;;13.70;4.10;;;;;;;;;;5032205;28;20037;-77
2021/03/16 09:53:00;;;;;;;12.52;3.85;;;;;;;;;;5015211;28;20056;-77
2021/03/16 09:55:26;;;;;;;18.08;4.15;;;;;;;;;;5017422;28;20123;-77
2021/03/16 09:57:51;;;;;;;11.25;3.25;;;;;;;;;;5016398;28;20146;-78
2021/03/16 10:00:18;;;;;;;12.85;3.78;;;;;;;;;;5017042;28;20772;-77
2021/03/16 10:02:44;;;;;;;11.85;3.35;;;;;;;;;;5034028;28;20033;-77
2021/03/16 10:05:11;;;;;;;12.27;3.28;;;;;;;;;;5033268;28;20056;-77
2021/03/16 10:07:37;;;;;;;13.43;4.10;;;;;;;;;;5017338;28;20037;-79
2021/03/16 10:10:05;;;;;;;14.70;3.65;;;;;;;;;;5026371;28;20037;-80
2021/03/16 10:12:31;;;;;;;14.57;3.00;;;;;;;;;;5047056;28;20449;-81
2021/03/16 10:14:56;;;;;;;11.38;2.85;;;;;;;;;;5044731;28;20045;-80
2021/03/16 10:17:23;;;;;;;10.77;3.53;;;;;;;;;;5013173;28;20441;-80
2021/03/16 10:19:59;;;;;;;11.07;3.75;;;;;;;;;;5023536;28;20032;-80
2021/03/16 10:22:29;;;;;;;8.55;3.05;;;;;;;;;;5033215;28;20131;-80
2021/03/16 10:24:55;;;;;;;9.63;2.90;;;;;;;;;;4998062;28;20108;-80
2021/03/16 10:27:39;;;;;;;9.68;3.83;;;;;;;;;;5014075;28;20041;-79
2021/03/16 10:30:07;;;;;;;12.35;3.17;;;;;;;;;;5017543;28;20103;-80
2021/03/16 10:32:32;;;;;;;15.15;3.80;;;;;;;;;;5001690;28;20045;-80
2021/03/16 10:34:58;;;;;;;6.15;2.55;;;;;;;;;;5002269;28;20036;-80
2021/03/16 10:37:24;;;;;;;10.45;2.65;;;;;;;;;;5037357;28;20102;-79
2021/03/16 10:39:50;;;;;;;13.68;3.40;;;;;;;;;;5053980;28;20049;-80
2021/03/16 10:42:16;;;;;;;14.57;3.55;;;;;;;;;;5056938;28;20068;-79
2021/03/16 10:44:41;;;;;;;11.02;2.67;;;;;;;;;;5040432;28;20028;-79
2021/03/16 10:47:07;;;;;;;8.50;2.50;;;;;;;;;;5034992;28;20044;-79
2021/03/16 10:49:33;;;;;;;7.47;2.20;;;;;;;;;;5017019;28;20095;-78
2021/03/16 10:51:59;;;;;;;8.68;2.42;;;;;;;;;;5033197;28;20056;-78
2021/03/16 10:54:25;;;;;;;7.07;2.25;;;;;;;;;;5017479;28;20033;-79
2021/03/16 10:56:51;;;;;;;7.82;2.55;;;;;;;;;;5050301;28;20030;-79
2021/03/16 10:59:17;;;;;;;6.95;2.13;;;;;;;;;;5033758;28;20037;-78
2021/03/16 11:01:43;;;;;;;5.88;1.75;;;;;;;;;;5033893;28;20041;-80
2021/03/16 11:04:08;;;;;;;7.40;2.17;;;;;;;;;;5032936;28;20034;-80
2021/03/16 11:06:34;;;;;;;5.93;1.83;;;;;;;;;;5050055;28;20403;-80
2021/03/16 11:08:59;;;;;;;7.88;2.03;;;;;;;;;;5048845;28;20127;-80
2021/03/16 11:11:25;;;;;;;8.13;2.65;;;;;;;;;;5016504;28;20416;-80
2021/03/16 11:13:50;;;;;;;7.50;2.00;;;;;;;;;;5055592;28;20063;-80
2021/03/16 11:16:16;;;;;;;4.93;1.48;;;;;;;;;;5047881;28;20040;-79
2021/03/16 11:18:41;;;;;;;7.80;1.80;;;;;;;;;;5003529;28;20056;-78
2021/03/16 11:21:07;;;;;;;5.22;2.17;;;;;;;;;;5019390;28;20384;-78
2021/03/16 11:23:33;;;;;;;4.57;1.42;;;;;;;;;;5036512;28;20041;-78
2021/03/16 11:25:58;;;;;;;5.80;1.88;;;;;;;;;;5036657;28;20087;-78
2021/03/16 11:28:24;;;;;;;5.07;1.77;;;;;;;;;;5020143;28;20055;-79
2021/03/16 11:30:49;;;;;;;5.20;1.52;;;;;;;;;;5019875;28;20407;-78
2021/03/16 11:33:14;;;;;;;5.03;2.20;;;;;;;;;;5019442;28;20032;-78
2021/03/16 11:35:40;;;;;;;4.68;1.63;;;;;;;;;;5019899;28;20106;-78
2021/03/16 11:38:05;;;;;;;4.18;1.40;;;;;;;;;;5019616;28;20028;-78
2021/03/16 11:40:31;;;;;;;4.22;1.60;;;;;;;;;;5016776;28;20439;-78
2021/03/16 11:42:56;;;;;;;3.72;1.20;;;;;;;;;;5003985;28;20467;-78
2021/03/16 11:45:22;;;;;;;3.50;0.98;;;;;;;;;;5056747;28;20097;-78
2021/03/16 11:47:47;;;;;;;2.97;1.10;;;;;;;;;;5055866;28;20067;-78
2021/03/16 11:50:13;;;;;;;2.75;0.80;;;;;;;;;;5039118;28;20033;-78
2021/03/16 11:52:39;;;;;;;2.85;1.40;;;;;;;;;;5039294;28;20070;-78
2021/03/16 11:55:05;;;;;;;3.17;0.98;;;;;;;;;;5023102;28;20028;-78
2021/03/16 11:57:31;;;;;;;2.55;0.80;;;;;;;;;;5056490;28;20502;-79
2021/03/16 11:59:56;;;;;;;3.35;1.00;;;;;;;;;;5038979;28;20112;-78
2021/03/16 12:02:22;;;;;;;3.50;0.88;;;;;;;;;;5019635;28;20036;-80
2021/03/16 12:04:47;;;;;;;2.95;0.85;;;;;;;;;;5018316;28;20463;-81
2021/03/16 12:07:13;;;;;;;3.58;1.10;;;;;;;;;;5019236;28;20037;-80
2021/03/16 12:09:38;;;;;;;3.58;0.90;;;;;;;;;;5019375;28;20044;-80
2021/03/16 12:12:04;;;;;;;3.30;1.10;;;;;;;;;;4996727;28;20033;-80
2021/03/16 12:14:29;;;;;;;3.40;1.15;;;;;;;;;;5040059;28;20392;-80
2021/03/16 12:16:55;;;;;;;2.33;0.70;;;;;;;;;;5015564;28;20748;-80
2021/03/16 12:19:21;;;;;;;2.50;0.95;;;;;;;;;;5031861;28;21030;-80
2021/03/16 12:21:47;;;;;;;2.92;0.70;;;;;;;;;;5048246;28;20075;-80
2021/03/16 12:24:12;;;;;;;2.63;1.00;;;;;;;;;;5015573;28;20041;-80
2021/03/16 12:26:39;;;;;;;2.00;0.70;;;;;;;;;;5015513;28;20045;-80
2021/03/16 12:29:05;;;;;;;3.55;0.88;;;;;;;;;;4999235;28;20033;-80
2021/03/16 12:31:31;;;;;;;3.05;0.60;;;;;;;;;;5015648;28;20060;-79
2021/03/16 12:33:57;;;;;;;2.22;0.43;;;;;;;;;;5015245;28;20518;-79
2021/03/16 12:36:23;;;;;;;2.63;0.80;;;;;;;;;;5032605;28;20037;-80
2021/03/16 12:38:48;;;;;;;1.15;0.60;;;;;;;;;;4998978;28;20040;-80
2021/03/16 12:41:14;;;;;;;1.67;0.60;;;;;;;;;;5031372;28;20069;-80
2021/03/16 12:43:39;;;;;;;2.03;0.77;;;;;;;;;;5032453;28;20389;-81
2021/03/16 12:46:05;;;;;;;1.52;0.55;;;;;;;;;;4998837;28;20042;-80
2021/03/16 12:48:30;;;;;;;2.17;0.55;;;;;;;;;;5024389;28;20037;-80
2021/03/16 12:50:55;;;;;;;1.92;0.80;;;;;;;;;;5047145;28;20139;-80
2021/03/16 12:53:21;;;;;;;2.28;0.70;;;;;;;;;;5014828;28;20068;-80
2021/03/16 12:55:46;;;;;;;2.42;0.70;;;;;;;;;;4998896;28;20033;-80
2021/03/16 12:58:12;;;;;;;4.28;0.82;;;;;;;;;;5031843;28;20037;-80
2021/03/16 13:00:37;;;;;;;2.03;0.90;;;;;;;;;;4999964;28;20060;-80
2021/03/16 13:03:03;;;;;;;1.88;0.57;;;;;;;;;;5018287;28;20072;-80
2021/03/16 13:05:28;;;;;;;2.08;0.60;;;;;;;;;;5030487;28;20036;-80
2021/03/16 13:07:54;;;;;;;2.47;0.68;;;;;;;;;;5031169;28;20040;-80
2021/03/16 13:10:19;;;;;;;2.35;0.93;;;;;;;;;;5014608;28;20408;-80
2021/03/16 13:12:44;;;;;;;1.52;0.80;;;;;;;;;;5039377;28;20068;-80
2021/03/16 13:15:11;;;;;;;1.70;0.47;;;;;;;;;;4998123;28;20040;-80
2021/03/16 13:17:37;;;;;;;1.20;0.38;;;;;;;;;;5004887;28;20415;-80
2021/03/16 13:20:06;;;;;;;2.42;0.93;;;;;;;;;;5003250;28;20044;-80
2021/03/16 13:22:32;;;;;;;1.33;0.50;;;;;;;;;;5001323;28;20064;-80
2021/03/16 13:24:57;;;;;;;3.92;0.60;;;;;;;;;;5017765;28;20499;-80
2021/03/16 13:27:22;;;;;;;2.20;0.88;;;;;;;;;;5034364;28;20051;-81
2021/03/16 13:29:48;;;;;;;1.52;0.43;;;;;;;;;;5000757;28;20044;-80
2021/03/16 13:32:13;;;;;;;1.75;0.45;;;;;;;;;;5000492;28;20415;-80
2021/03/16 13:34:39;;;;;;;3.15;0.82;;;;;;;;;;5033790;28;20033;-80
2021/03/16 13:37:05;;;;;;;2.67;0.60;;;;;;;;;;5051101;28;20037;-80
2021/03/16 13:39:30;;;;;;;2.05;0.60;;;;;;;;;;5033818;28;20407;-80
2021/03/16 13:41:56;;;;;;;3.35;0.60;;;;;;;;;;5000577;28;20044;-80
2021/03/16 13:44:21;;;;;;;1.88;0.60;;;;;;;;;;5030316;28;20116;-80
2021/03/16 13:46:47;;;;;;;1.48;0.40;;;;;;;;;;5026028;28;20033;-80
2021/03/16 13:49:12;;;;;;;2.25;0.82;;;;;;;;;;5017445;28;20075;-80
2021/03/16 13:51:38;;;;;;;1.33;0.50;;;;;;;;;;5017002;28;20442;-80
2021/03/16 13:54:03;;;;;;;1.63;0.43;;;;;;;;;;5019085;28;20065;-80
2021/03/16 13:56:29;;;;;;;6.10;3.35;;;;;;;;;;5030595;28;20083;-80
2021/03/16 13:58:54;;;;;;;8.48;6.03;;;;;;;;;;5014313;28;20037;-80
2021/03/16 14:01:20;;;;;;;13.98;10.50;;;;;;;;;;5003678;28;20064;-80
2021/03/16 14:03:45;;;;;;;10.88;9.05;;;;;;;;;;5046188;28;20403;-80
2021/03/16 14:06:11;;;;;;;11.07;8.05;;;;;;;;;;5030518;28;20041;-80
2021/03/16 14:08:36;;;;;;;9.60;7.30;;;;;;;;;;5050549;28;20029;-81
2021/03/16 14:11:02;;;;;;;10.45;6.85;;;;;;;;;;5015268;28;20499;-82
2021/03/16 14:13:27;;;;;;;9.30;6.72;;;;;;;;;;5049921;28;20128;-81
2021/03/16 14:15:53;;;;;;;7.22;5.75;;;;;;;;;;5017491;28;20095;-81
2021/03/16 14:18:18;;;;;;;7.15;5.35;;;;;;;;;;5023101;28;20033;-81
2021/03/16 14:20:44;;;;;;;7.57;5.15;;;;;;;;;;5033346;28;20048;-81
2021/03/16 14:23:09;;;;;;;8.73;5.65;;;;;;;;;;5050099;28;20406;-81
2021/03/16 14:25:35;;;;;;;7.10;5.20;;;;;;;;;;5033457;28;20120;-81
2021/03/16 14:28:00;;;;;;;6.28;5.13;;;;;;;;;;5033634;28;20086;-81
2021/03/16 14:30:26;;;;;;;8.35;4.85;;;;;;;;;;5017853;28;20068;-81
2021/03/16 14:32:51;;;;;;;7.50;4.68;;;;;;;;;;5033964;28;20465;-81
2021/03/16 14:35:20;;;;;;;5.70;4.15;;;;;;;;;;5033701;28;20546;-81
2021/03/16 14:37:45;;;;;;;6.68;4.97;;;;;;;;;;5017233;28;20117;-81
2021/03/16 14:40:12;;;;;;;10.20;7.75;;;;;;;;;;5017121;28;20040;-81